sensor_id;sensor_type;location;lat;lon;timestamp;temperature;humidity
69598;SHT31;70000;51.176;-115.568;2023-08-06T00:02:11;27.49;30.78
69598;SHT31;70000;51.176;-115.568;2023-08-06T00:04:57;27.13;31.04
69598;SHT31;70000;51.176;-115.568;2023-08-06T00:07:26;26.81;31.32
69598;SHT31;70000;51.176;-115.568;2023-08-06T00:09:58;26.91;31.65
69598;SHT31;70000;51.176;-115.568;2023-08-06T00:12:27;27.20;31.34
69598;SHT31;70000;51.176;-115.568;2023-08-06T00:14:57;27.67;31.02
69598;SHT31;70000;51.176;-115.568;2023-08-06T00:17:26;27.75;30.73
69598;SHT31;70000;51.176;-115.568;2023-08-06T00:19:56;27.43;31.05
69598;SHT31;70000;51.176;-115.568;2023-08-06T00:22:26;27.21;31.44
69598;SHT31;70000;51.176;-115.568;2023-08-06T00:24:55;27.61;31.64
69598;SHT31;70000;51.176;-115.568;2023-08-06T00:27:25;28.66;30.65
69598;SHT31;70000;51.176;-115.568;2023-08-06T00:29:55;29.68;29.61
69598;SHT31;70000;51.176;-115.568;2023-08-06T00:32:25;30.54;29.27
69598;SHT31;70000;51.176;-115.568;2023-08-06T00:34:54;30.89;28.39
69598;SHT31;70000;51.176;-115.568;2023-08-06T00:37:24;30.34;28.36
69598;SHT31;70000;51.176;-115.568;2023-08-06T00:39:53;30.15;28.64
69598;SHT31;70000;51.176;-115.568;2023-08-06T00:42:22;30.51;28.04
69598;SHT31;70000;51.176;-115.568;2023-08-06T00:44:52;30.59;27.68
69598;SHT31;70000;51.176;-115.568;2023-08-06T00:47:23;31.05;27.34
69598;SHT31;70000;51.176;-115.568;2023-08-06T00:49:53;31.50;26.89
69598;SHT31;70000;51.176;-115.568;2023-08-06T00:52:23;31.79;26.42
69598;SHT31;70000;51.176;-115.568;2023-08-06T00:54:52;31.88;26.18
69598;SHT31;70000;51.176;-115.568;2023-08-06T00:57:22;31.53;26.10
69598;SHT31;70000;51.176;-115.568;2023-08-06T00:59:54;30.92;26.63
69598;SHT31;70000;51.176;-115.568;2023-08-06T01:02:24;30.45;27.05
69598;SHT31;70000;51.176;-115.568;2023-08-06T01:04:56;29.97;27.32
69598;SHT31;70000;51.176;-115.568;2023-08-06T01:14:00;28.92;28.55
69598;SHT31;70000;51.176;-115.568;2023-08-06T01:16:56;28.66;29.00
69598;SHT31;70000;51.176;-115.568;2023-08-06T01:19:35;28.34;29.16
69598;SHT31;70000;51.176;-115.568;2023-08-06T01:22:44;27.96;29.71
69598;SHT31;70000;51.176;-115.568;2023-08-06T01:25:14;27.67;30.03
69598;SHT31;70000;51.176;-115.568;2023-08-06T01:27:51;27.41;30.22
69598;SHT31;70000;51.176;-115.568;2023-08-06T01:30:30;27.05;30.62
69598;SHT31;70000;51.176;-115.568;2023-08-06T01:33:04;26.77;30.93
69598;SHT31;70000;51.176;-115.568;2023-08-06T01:35:36;26.60;31.33
69598;SHT31;70000;51.176;-115.568;2023-08-06T01:38:07;26.40;31.38
69598;SHT31;70000;51.176;-115.568;2023-08-06T01:40:36;26.18;31.72
69598;SHT31;70000;51.176;-115.568;2023-08-06T01:43:05;25.97;32.09
69598;SHT31;70000;51.176;-115.568;2023-08-06T01:45:34;25.88;32.52
69598;SHT31;70000;51.176;-115.568;2023-08-06T01:48:03;25.76;32.51
69598;SHT31;70000;51.176;-115.568;2023-08-06T01:50:32;25.61;32.72
69598;SHT31;70000;51.176;-115.568;2023-08-06T01:53:01;25.50;33.15
69598;SHT31;70000;51.176;-115.568;2023-08-06T01:55:30;25.34;33.37
69598;SHT31;70000;51.176;-115.568;2023-08-06T01:58:01;25.14;33.74
69598;SHT31;70000;51.176;-115.568;2023-08-06T02:00:31;24.93;34.20
69598;SHT31;70000;51.176;-115.568;2023-08-06T02:03:00;24.79;34.60
69598;SHT31;70000;51.176;-115.568;2023-08-06T02:05:29;24.68;34.77
69598;SHT31;70000;51.176;-115.568;2023-08-06T02:07:57;24.51;35.00
69598;SHT31;70000;51.176;-115.568;2023-08-06T02:10:27;24.39;35.32
69598;SHT31;70000;51.176;-115.568;2023-08-06T02:12:55;24.24;35.85
69598;SHT31;70000;51.176;-115.568;2023-08-06T02:15:24;24.17;36.13
69598;SHT31;70000;51.176;-115.568;2023-08-06T02:17:54;24.05;36.11
69598;SHT31;70000;51.176;-115.568;2023-08-06T02:20:23;23.93;36.17
69598;SHT31;70000;51.176;-115.568;2023-08-06T02:22:52;23.84;35.96
69598;SHT31;70000;51.176;-115.568;2023-08-06T02:25:21;23.75;36.10
69598;SHT31;70000;51.176;-115.568;2023-08-06T02:27:51;23.67;36.47
69598;SHT31;70000;51.176;-115.568;2023-08-06T02:30:20;23.63;36.48
69598;SHT31;70000;51.176;-115.568;2023-08-06T02:32:49;23.57;36.52
69598;SHT31;70000;51.176;-115.568;2023-08-06T02:35:19;23.45;36.71
69598;SHT31;70000;51.176;-115.568;2023-08-06T02:37:48;23.39;37.04
69598;SHT31;70000;51.176;-115.568;2023-08-06T02:40:23;23.33;37.29
69598;SHT31;70000;51.176;-115.568;2023-08-06T02:42:52;23.24;37.58
69598;SHT31;70000;51.176;-115.568;2023-08-06T02:45:21;23.15;37.99
69598;SHT31;70000;51.176;-115.568;2023-08-06T02:47:50;23.07;38.26
69598;SHT31;70000;51.176;-115.568;2023-08-06T02:50:19;23.02;38.46
69598;SHT31;70000;51.176;-115.568;2023-08-06T02:52:49;22.93;38.76
69598;SHT31;70000;51.176;-115.568;2023-08-06T02:55:18;22.86;38.88
69598;SHT31;70000;51.176;-115.568;2023-08-06T02:57:49;22.75;39.13
69598;SHT31;70000;51.176;-115.568;2023-08-06T03:00:18;22.68;39.28
69598;SHT31;70000;51.176;-115.568;2023-08-06T03:06:12;22.52;39.71
69598;SHT31;70000;51.176;-115.568;2023-08-06T03:08:42;22.46;39.52
69598;SHT31;70000;51.176;-115.568;2023-08-06T03:11:12;22.34;39.75
69598;SHT31;70000;51.176;-115.568;2023-08-06T03:13:44;22.25;40.08
69598;SHT31;70000;51.176;-115.568;2023-08-06T03:16:12;22.14;40.44
69598;SHT31;70000;51.176;-115.568;2023-08-06T03:18:41;22.01;40.66
69598;SHT31;70000;51.176;-115.568;2023-08-06T03:21:11;21.92;40.91
69598;SHT31;70000;51.176;-115.568;2023-08-06T03:23:40;21.83;41.30
69598;SHT31;70000;51.176;-115.568;2023-08-06T03:26:09;21.71;41.63
69598;SHT31;70000;51.176;-115.568;2023-08-06T03:28:38;21.62;41.74
69598;SHT31;70000;51.176;-115.568;2023-08-06T03:31:07;21.57;41.92
69598;SHT31;70000;51.176;-115.568;2023-08-06T03:33:37;21.52;41.93
69598;SHT31;70000;51.176;-115.568;2023-08-06T03:36:05;21.46;42.24
69598;SHT31;70000;51.176;-115.568;2023-08-06T03:38:34;21.37;42.37
69598;SHT31;70000;51.176;-115.568;2023-08-06T03:41:05;21.34;42.51
69598;SHT31;70000;51.176;-115.568;2023-08-06T03:43:36;21.32;42.71
69598;SHT31;70000;51.176;-115.568;2023-08-06T03:46:06;21.26;42.74
69598;SHT31;70000;51.176;-115.568;2023-08-06T03:48:35;21.14;42.78
69598;SHT31;70000;51.176;-115.568;2023-08-06T03:53:58;21.11;42.69
69598;SHT31;70000;51.176;-115.568;2023-08-06T03:56:27;21.08;42.01
69598;SHT31;70000;51.176;-115.568;2023-08-06T03:59:21;21.04;41.72
69598;SHT31;70000;51.176;-115.568;2023-08-06T04:01:51;21.02;41.55
69598;SHT31;70000;51.176;-115.568;2023-08-06T04:04:21;20.97;41.00
69598;SHT31;70000;51.176;-115.568;2023-08-06T04:06:50;20.86;40.66
69598;SHT31;70000;51.176;-115.568;2023-08-06T04:09:23;20.79;40.80
69598;SHT31;70000;51.176;-115.568;2023-08-06T04:11:53;20.73;41.02
69598;SHT31;70000;51.176;-115.568;2023-08-06T04:14:41;20.67;41.18
69598;SHT31;70000;51.176;-115.568;2023-08-06T04:17:11;20.60;41.86
69598;SHT31;70000;51.176;-115.568;2023-08-06T04:19:40;20.55;42.31
69598;SHT31;70000;51.176;-115.568;2023-08-06T04:22:13;20.51;42.30
69598;SHT31;70000;51.176;-115.568;2023-08-06T04:24:43;20.45;43.28
69598;SHT31;70000;51.176;-115.568;2023-08-06T04:27:17;20.39;44.25
69598;SHT31;70000;51.176;-115.568;2023-08-06T04:29:48;20.33;45.00
69598;SHT31;70000;51.176;-115.568;2023-08-06T04:32:18;20.25;45.94
69598;SHT31;70000;51.176;-115.568;2023-08-06T04:35:05;20.18;47.28
69598;SHT31;70000;51.176;-115.568;2023-08-06T04:37:35;20.05;48.30
69598;SHT31;70000;51.176;-115.568;2023-08-06T04:40:04;19.95;48.97
69598;SHT31;70000;51.176;-115.568;2023-08-06T04:42:35;19.88;49.66
69598;SHT31;70000;51.176;-115.568;2023-08-06T04:45:05;19.81;50.22
69598;SHT31;70000;51.176;-115.568;2023-08-06T04:47:35;19.73;50.82
69598;SHT31;70000;51.176;-115.568;2023-08-06T04:53:36;19.50;51.87
69598;SHT31;70000;51.176;-115.568;2023-08-06T04:56:05;19.39;52.99
69598;SHT31;70000;51.176;-115.568;2023-08-06T04:58:37;19.30;53.65
69598;SHT31;70000;51.176;-115.568;2023-08-06T05:01:08;19.16;54.45
69598;SHT31;70000;51.176;-115.568;2023-08-06T05:03:38;19.07;54.83
69598;SHT31;70000;51.176;-115.568;2023-08-06T05:06:10;19.02;54.75
69598;SHT31;70000;51.176;-115.568;2023-08-06T05:08:42;18.97;55.01
69598;SHT31;70000;51.176;-115.568;2023-08-06T05:11:15;18.87;55.59
69598;SHT31;70000;51.176;-115.568;2023-08-06T05:13:44;18.75;56.02
69598;SHT31;70000;51.176;-115.568;2023-08-06T05:16:13;18.66;56.54
69598;SHT31;70000;51.176;-115.568;2023-08-06T05:18:42;18.54;56.71
69598;SHT31;70000;51.176;-115.568;2023-08-06T05:21:11;18.44;56.61
69598;SHT31;70000;51.176;-115.568;2023-08-06T05:23:40;18.35;56.29
69598;SHT31;70000;51.176;-115.568;2023-08-06T05:26:15;18.28;56.35
69598;SHT31;70000;51.176;-115.568;2023-08-06T05:29:07;18.22;56.61
69598;SHT31;70000;51.176;-115.568;2023-08-06T05:31:46;18.17;56.29
69598;SHT31;70000;51.176;-115.568;2023-08-06T05:34:19;18.11;55.82
69598;SHT31;70000;51.176;-115.568;2023-08-06T05:37:00;18.01;57.24
69598;SHT31;70000;51.176;-115.568;2023-08-06T05:39:29;17.91;58.13
69598;SHT31;70000;51.176;-115.568;2023-08-06T05:41:58;17.80;58.51
69598;SHT31;70000;51.176;-115.568;2023-08-06T05:44:27;17.68;58.95
69598;SHT31;70000;51.176;-115.568;2023-08-06T05:47:09;17.57;59.20
69598;SHT31;70000;51.176;-115.568;2023-08-06T06:00:01;17.36;60.99
69598;SHT31;70000;51.176;-115.568;2023-08-06T06:02:34;17.36;61.28
69598;SHT31;70000;51.176;-115.568;2023-08-06T06:05:05;17.33;61.29
69598;SHT31;70000;51.176;-115.568;2023-08-06T06:14:53;17.32;60.91
69598;SHT31;70000;51.176;-115.568;2023-08-06T06:17:25;17.35;60.51
69598;SHT31;70000;51.176;-115.568;2023-08-06T06:19:58;17.34;60.50
69598;SHT31;70000;51.176;-115.568;2023-08-06T06:23:08;17.31;60.60
69598;SHT31;70000;51.176;-115.568;2023-08-06T06:25:43;17.25;60.75
69598;SHT31;70000;51.176;-115.568;2023-08-06T06:28:19;17.19;60.77
69598;SHT31;70000;51.176;-115.568;2023-08-06T06:30:51;17.15;60.72
69598;SHT31;70000;51.176;-115.568;2023-08-06T06:33:21;17.14;60.77
69598;SHT31;70000;51.176;-115.568;2023-08-06T06:35:51;17.12;60.68
69598;SHT31;70000;51.176;-115.568;2023-08-06T06:38:24;17.10;60.74
69598;SHT31;70000;51.176;-115.568;2023-08-06T06:40:55;17.07;60.81
69598;SHT31;70000;51.176;-115.568;2023-08-06T06:43:25;17.05;61.01
69598;SHT31;70000;51.176;-115.568;2023-08-06T06:45:58;17.01;61.15
69598;SHT31;70000;51.176;-115.568;2023-08-06T06:48:32;17.00;61.17
69598;SHT31;70000;51.176;-115.568;2023-08-06T06:51:04;16.96;61.36
69598;SHT31;70000;51.176;-115.568;2023-08-06T06:53:36;16.91;61.52
69598;SHT31;70000;51.176;-115.568;2023-08-06T06:56:11;16.86;61.72
69598;SHT31;70000;51.176;-115.568;2023-08-06T06:58:41;16.79;61.90
69598;SHT31;70000;51.176;-115.568;2023-08-06T07:01:11;16.70;62.15
69598;SHT31;70000;51.176;-115.568;2023-08-06T07:03:41;16.66;62.06
69598;SHT31;70000;51.176;-115.568;2023-08-06T07:13:24;16.45;62.72
69598;SHT31;70000;51.176;-115.568;2023-08-06T07:15:57;16.40;62.88
69598;SHT31;70000;51.176;-115.568;2023-08-06T07:18:27;16.37;62.99
69598;SHT31;70000;51.176;-115.568;2023-08-06T07:21:00;16.38;62.99
69598;SHT31;70000;51.176;-115.568;2023-08-06T07:23:29;16.36;63.10
69598;SHT31;70000;51.176;-115.568;2023-08-06T07:25:58;16.34;63.17
69598;SHT31;70000;51.176;-115.568;2023-08-06T07:28:31;16.34;63.08
69598;SHT31;70000;51.176;-115.568;2023-08-06T07:31:03;16.36;62.76
69598;SHT31;70000;51.176;-115.568;2023-08-06T07:33:36;16.39;62.41
69598;SHT31;70000;51.176;-115.568;2023-08-06T07:36:12;16.40;62.32
69598;SHT31;70000;51.176;-115.568;2023-08-06T07:38:54;16.37;62.31
69598;SHT31;70000;51.176;-115.568;2023-08-06T07:41:26;16.32;62.49
69598;SHT31;70000;51.176;-115.568;2023-08-06T07:43:55;16.28;62.55
69598;SHT31;70000;51.176;-115.568;2023-08-06T07:46:25;16.26;62.64
69598;SHT31;70000;51.176;-115.568;2023-08-06T07:48:54;16.22;62.80
69598;SHT31;70000;51.176;-115.568;2023-08-06T07:51:28;16.18;62.87
69598;SHT31;70000;51.176;-115.568;2023-08-06T07:53:58;16.14;63.02
69598;SHT31;70000;51.176;-115.568;2023-08-06T07:56:27;16.08;63.19
69598;SHT31;70000;51.176;-115.568;2023-08-06T07:58:57;16.04;63.28
69598;SHT31;70000;51.176;-115.568;2023-08-06T08:01:27;16.04;63.34
69598;SHT31;70000;51.176;-115.568;2023-08-06T08:03:56;16.00;63.38
69598;SHT31;70000;51.176;-115.568;2023-08-06T08:13:38;15.98;63.51
69598;SHT31;70000;51.176;-115.568;2023-08-06T08:16:08;15.94;63.63
69598;SHT31;70000;51.176;-115.568;2023-08-06T08:18:40;15.90;63.78
69598;SHT31;70000;51.176;-115.568;2023-08-06T08:21:09;15.82;64.05
69598;SHT31;70000;51.176;-115.568;2023-08-06T08:23:39;15.72;64.20
69598;SHT31;70000;51.176;-115.568;2023-08-06T08:26:10;15.69;64.18
69598;SHT31;70000;51.176;-115.568;2023-08-06T08:28:39;15.63;64.47
69598;SHT31;70000;51.176;-115.568;2023-08-06T08:31:10;15.54;64.59
69598;SHT31;70000;51.176;-115.568;2023-08-06T08:33:40;15.52;64.64
69598;SHT31;70000;51.176;-115.568;2023-08-06T08:36:11;15.47;64.77
69598;SHT31;70000;51.176;-115.568;2023-08-06T08:38:41;15.38;64.89
69598;SHT31;70000;51.176;-115.568;2023-08-06T08:41:16;15.32;64.98
69598;SHT31;70000;51.176;-115.568;2023-08-06T08:43:45;15.26;65.18
69598;SHT31;70000;51.176;-115.568;2023-08-06T08:46:19;15.21;65.16
69598;SHT31;70000;51.176;-115.568;2023-08-06T08:48:49;15.16;65.28
69598;SHT31;70000;51.176;-115.568;2023-08-06T08:51:19;15.14;65.39
69598;SHT31;70000;51.176;-115.568;2023-08-06T08:53:52;15.07;65.56
69598;SHT31;70000;51.176;-115.568;2023-08-06T08:56:28;14.99;65.64
69598;SHT31;70000;51.176;-115.568;2023-08-06T08:58:58;14.94;65.73
69598;SHT31;70000;51.176;-115.568;2023-08-06T09:01:29;14.86;65.86
69598;SHT31;70000;51.176;-115.568;2023-08-06T09:04:00;14.80;66.02
69598;SHT31;70000;51.176;-115.568;2023-08-06T09:06:33;14.80;65.93
69598;SHT31;70000;51.176;-115.568;2023-08-06T09:09:09;14.78;66.04
69598;SHT31;70000;51.176;-115.568;2023-08-06T09:11:50;14.72;66.13
69598;SHT31;70000;51.176;-115.568;2023-08-06T09:14:23;14.69;66.16
69598;SHT31;70000;51.176;-115.568;2023-08-06T09:16:52;14.67;66.19
69598;SHT31;70000;51.176;-115.568;2023-08-06T09:19:23;14.68;66.11
69598;SHT31;70000;51.176;-115.568;2023-08-06T09:21:56;14.67;66.21
69598;SHT31;70000;51.176;-115.568;2023-08-06T09:24:26;14.57;66.48
69598;SHT31;70000;51.176;-115.568;2023-08-06T09:26:58;14.50;66.65
69598;SHT31;70000;51.176;-115.568;2023-08-06T09:29:31;14.41;66.89
69598;SHT31;70000;51.176;-115.568;2023-08-06T09:32:03;14.28;67.17
69598;SHT31;70000;51.176;-115.568;2023-08-06T09:34:35;14.24;67.16
69598;SHT31;70000;51.176;-115.568;2023-08-06T09:37:11;14.25;67.23
69598;SHT31;70000;51.176;-115.568;2023-08-06T09:39:44;14.20;67.25
69598;SHT31;70000;51.176;-115.568;2023-08-06T09:42:14;14.17;67.18
69598;SHT31;70000;51.176;-115.568;2023-08-06T09:44:44;14.12;67.30
69598;SHT31;70000;51.176;-115.568;2023-08-06T09:47:16;14.08;67.40
69598;SHT31;70000;51.176;-115.568;2023-08-06T09:49:48;14.05;67.47
69598;SHT31;70000;51.176;-115.568;2023-08-06T09:52:19;14.02;67.50
69598;SHT31;70000;51.176;-115.568;2023-08-06T09:54:49;13.98;67.62
69598;SHT31;70000;51.176;-115.568;2023-08-06T09:57:20;13.91;67.78
69598;SHT31;70000;51.176;-115.568;2023-08-06T09:59:51;13.80;67.99
69598;SHT31;70000;51.176;-115.568;2023-08-06T10:02:25;13.78;68.01
69598;SHT31;70000;51.176;-115.568;2023-08-06T10:04:55;13.77;68.00
69598;SHT31;70000;51.176;-115.568;2023-08-06T10:07:36;13.73;68.11
69598;SHT31;70000;51.176;-115.568;2023-08-06T10:10:08;13.68;68.17
69598;SHT31;70000;51.176;-115.568;2023-08-06T10:12:41;13.60;68.23
69598;SHT31;70000;51.176;-115.568;2023-08-06T10:15:20;13.53;68.30
69598;SHT31;70000;51.176;-115.568;2023-08-06T10:17:56;13.45;68.42
69598;SHT31;70000;51.176;-115.568;2023-08-06T10:20:32;13.41;68.54
69598;SHT31;70000;51.176;-115.568;2023-08-06T10:23:06;13.37;68.57
69598;SHT31;70000;51.176;-115.568;2023-08-06T10:25:35;13.36;68.55
69598;SHT31;70000;51.176;-115.568;2023-08-06T10:28:13;13.36;68.46
69598;SHT31;70000;51.176;-115.568;2023-08-06T10:30:44;13.36;68.40
69598;SHT31;70000;51.176;-115.568;2023-08-06T10:33:18;13.32;68.39
69598;SHT31;70000;51.176;-115.568;2023-08-06T10:35:50;13.31;68.40
69598;SHT31;70000;51.176;-115.568;2023-08-06T10:38:28;13.28;68.40
69598;SHT31;70000;51.176;-115.568;2023-08-06T10:41:03;13.27;68.48
69598;SHT31;70000;51.176;-115.568;2023-08-06T10:46:09;13.19;68.50
69598;SHT31;70000;51.176;-115.568;2023-08-06T10:48:50;13.12;68.61
69598;SHT31;70000;51.176;-115.568;2023-08-06T10:51:22;13.06;68.75
69598;SHT31;70000;51.176;-115.568;2023-08-06T10:53:52;13.01;68.89
69598;SHT31;70000;51.176;-115.568;2023-08-06T10:56:25;13.00;68.96
69598;SHT31;70000;51.176;-115.568;2023-08-06T10:59:00;12.98;68.96
69598;SHT31;70000;51.176;-115.568;2023-08-06T11:01:29;12.91;69.01
69598;SHT31;70000;51.176;-115.568;2023-08-06T11:04:02;12.84;69.08
69598;SHT31;70000;51.176;-115.568;2023-08-06T11:06:33;12.82;69.13
69598;SHT31;70000;51.176;-115.568;2023-08-06T11:09:04;12.76;69.23
69598;SHT31;70000;51.176;-115.568;2023-08-06T11:11:33;12.75;69.31
69598;SHT31;70000;51.176;-115.568;2023-08-06T11:14:05;12.76;69.24
69598;SHT31;70000;51.176;-115.568;2023-08-06T11:16:34;12.73;69.21
69598;SHT31;70000;51.176;-115.568;2023-08-06T11:19:03;12.70;69.22
69598;SHT31;70000;51.176;-115.568;2023-08-06T11:21:35;12.65;69.36
69598;SHT31;70000;51.176;-115.568;2023-08-06T11:24:04;12.59;69.53
69598;SHT31;70000;51.176;-115.568;2023-08-06T11:26:36;12.54;69.63
69598;SHT31;70000;51.176;-115.568;2023-08-06T11:29:07;12.55;69.61
69598;SHT31;70000;51.176;-115.568;2023-08-06T11:31:39;12.54;69.60
69598;SHT31;70000;51.176;-115.568;2023-08-06T11:34:11;12.51;69.56
69598;SHT31;70000;51.176;-115.568;2023-08-06T11:36:42;12.50;69.52
69598;SHT31;70000;51.176;-115.568;2023-08-06T11:39:11;12.45;69.52
69598;SHT31;70000;51.176;-115.568;2023-08-06T11:41:40;12.40;69.59
69598;SHT31;70000;51.176;-115.568;2023-08-06T11:44:14;12.31;69.79
69598;SHT31;70000;51.176;-115.568;2023-08-06T11:46:50;12.23;69.96
69598;SHT31;70000;51.176;-115.568;2023-08-06T11:52:17;12.13;70.27
69598;SHT31;70000;51.176;-115.568;2023-08-06T11:55:01;12.11;70.30
69598;SHT31;70000;51.176;-115.568;2023-08-06T11:57:45;12.15;70.15
69598;SHT31;70000;51.176;-115.568;2023-08-06T12:00:17;12.14;70.29
69598;SHT31;70000;51.176;-115.568;2023-08-06T12:02:50;12.08;70.51
69598;SHT31;70000;51.176;-115.568;2023-08-06T12:05:31;12.00;70.65
69598;SHT31;70000;51.176;-115.568;2023-08-06T12:08:02;11.95;70.73
69598;SHT31;70000;51.176;-115.568;2023-08-06T12:10:36;11.94;70.73
69598;SHT31;70000;51.176;-115.568;2023-08-06T12:13:05;11.95;70.73
69598;SHT31;70000;51.176;-115.568;2023-08-06T12:15:38;11.97;70.71
69598;SHT31;70000;51.176;-115.568;2023-08-06T12:18:10;11.99;70.64
69598;SHT31;70000;51.176;-115.568;2023-08-06T12:20:39;12.02;70.51
69598;SHT31;70000;51.176;-115.568;2023-08-06T12:23:09;12.04;70.39
69598;SHT31;70000;51.176;-115.568;2023-08-06T12:25:43;12.03;70.38
69598;SHT31;70000;51.176;-115.568;2023-08-06T12:28:13;12.02;70.29
69598;SHT31;70000;51.176;-115.568;2023-08-06T12:30:42;12.00;70.20
69598;SHT31;70000;51.176;-115.568;2023-08-06T12:33:12;11.97;70.26
69598;SHT31;70000;51.176;-115.568;2023-08-06T12:35:44;11.90;70.37
69598;SHT31;70000;51.176;-115.568;2023-08-06T12:38:13;11.84;70.56
69598;SHT31;70000;51.176;-115.568;2023-08-06T12:40:43;11.84;70.60
69598;SHT31;70000;51.176;-115.568;2023-08-06T12:43:12;11.81;70.61
69598;SHT31;70000;51.176;-115.568;2023-08-06T12:45:42;11.75;70.74
69598;SHT31;70000;51.176;-115.568;2023-08-06T12:48:11;11.71;70.80
69598;SHT31;70000;51.176;-115.568;2023-08-06T12:50:44;11.75;70.80
69598;SHT31;70000;51.176;-115.568;2023-08-06T12:53:16;11.75;70.81
69598;SHT31;70000;51.176;-115.568;2023-08-06T12:55:45;11.74;70.83
69598;SHT31;70000;51.176;-115.568;2023-08-06T12:58:16;11.78;70.75
69598;SHT31;70000;51.176;-115.568;2023-08-06T13:00:45;11.81;70.70
69598;SHT31;70000;51.176;-115.568;2023-08-06T13:03:17;11.81;70.84
69598;SHT31;70000;51.176;-115.568;2023-08-06T13:05:47;11.80;71.03
69598;SHT31;70000;51.176;-115.568;2023-08-06T13:08:20;11.80;71.10
69598;SHT31;70000;51.176;-115.568;2023-08-06T13:10:49;11.80;71.15
69598;SHT31;70000;51.176;-115.568;2023-08-06T13:13:24;11.80;71.25
69598;SHT31;70000;51.176;-115.568;2023-08-06T13:15:54;11.80;71.29
69598;SHT31;70000;51.176;-115.568;2023-08-06T13:18:23;11.83;71.34
69598;SHT31;70000;51.176;-115.568;2023-08-06T13:20:53;11.83;71.39
69598;SHT31;70000;51.176;-115.568;2023-08-06T13:23:23;11.82;71.50
69598;SHT31;70000;51.176;-115.568;2023-08-06T13:25:53;11.85;71.41
69598;SHT31;70000;51.176;-115.568;2023-08-06T13:28:23;11.89;71.34
69598;SHT31;70000;51.176;-115.568;2023-08-06T13:30:52;11.93;70.96
69598;SHT31;70000;51.176;-115.568;2023-08-06T13:33:21;11.98;70.44
69598;SHT31;70000;51.176;-115.568;2023-08-06T13:35:53;12.03;70.13
69598;SHT31;70000;51.176;-115.568;2023-08-06T13:38:22;12.05;70.04
69598;SHT31;70000;51.176;-115.568;2023-08-06T13:40:51;12.07;70.00
69598;SHT31;70000;51.176;-115.568;2023-08-06T13:43:20;12.10;69.91
69598;SHT31;70000;51.176;-115.568;2023-08-06T13:45:49;12.15;69.91
69598;SHT31;70000;51.176;-115.568;2023-08-06T13:48:19;12.17;69.96
69598;SHT31;70000;51.176;-115.568;2023-08-06T13:50:48;12.20;69.94
69598;SHT31;70000;51.176;-115.568;2023-08-06T13:53:17;12.23;69.94
69598;SHT31;70000;51.176;-115.568;2023-08-06T13:55:46;12.25;70.03
69598;SHT31;70000;51.176;-115.568;2023-08-06T13:58:15;12.28;70.18
69598;SHT31;70000;51.176;-115.568;2023-08-06T14:00:44;12.32;70.32
69598;SHT31;70000;51.176;-115.568;2023-08-06T14:03:14;12.35;70.42
69598;SHT31;70000;51.176;-115.568;2023-08-06T14:05:43;12.37;70.31
69598;SHT31;70000;51.176;-115.568;2023-08-06T14:08:12;12.38;70.32
69598;SHT31;70000;51.176;-115.568;2023-08-06T14:10:41;12.41;70.27
69598;SHT31;70000;51.176;-115.568;2023-08-06T14:13:11;12.42;70.14
69598;SHT31;70000;51.176;-115.568;2023-08-06T14:15:40;12.46;70.20
69598;SHT31;70000;51.176;-115.568;2023-08-06T14:18:10;12.49;70.34
69598;SHT31;70000;51.176;-115.568;2023-08-06T14:20:39;12.53;70.32
69598;SHT31;70000;51.176;-115.568;2023-08-06T14:23:10;12.61;70.34
69598;SHT31;70000;51.176;-115.568;2023-08-06T14:25:40;12.65;70.24
69598;SHT31;70000;51.176;-115.568;2023-08-06T14:28:11;12.72;70.12
69598;SHT31;70000;51.176;-115.568;2023-08-06T14:30:41;12.79;70.01
69598;SHT31;70000;51.176;-115.568;2023-08-06T14:33:12;12.86;70.07
69598;SHT31;70000;51.176;-115.568;2023-08-06T14:35:53;12.94;70.06
69598;SHT31;70000;51.176;-115.568;2023-08-06T14:38:22;13.01;69.94
69598;SHT31;70000;51.176;-115.568;2023-08-06T14:40:52;13.10;69.89
69598;SHT31;70000;51.176;-115.568;2023-08-06T14:43:21;13.17;69.59
69598;SHT31;70000;51.176;-115.568;2023-08-06T14:45:50;13.22;69.54
69598;SHT31;70000;51.176;-115.568;2023-08-06T14:48:20;13.28;69.58
69598;SHT31;70000;51.176;-115.568;2023-08-06T14:50:49;13.36;69.29
69598;SHT31;70000;51.176;-115.568;2023-08-06T14:53:18;13.43;69.08
69598;SHT31;70000;51.176;-115.568;2023-08-06T14:55:47;13.52;69.41
69598;SHT31;70000;51.176;-115.568;2023-08-06T14:58:16;13.59;68.89
69598;SHT31;70000;51.176;-115.568;2023-08-06T15:00:45;13.67;69.07
69598;SHT31;70000;51.176;-115.568;2023-08-06T15:03:17;13.75;68.93
69598;SHT31;70000;51.176;-115.568;2023-08-06T15:05:47;13.84;68.87
69598;SHT31;70000;51.176;-115.568;2023-08-06T15:08:17;13.89;68.98
69598;SHT31;70000;51.176;-115.568;2023-08-06T15:10:49;13.95;68.82
69598;SHT31;70000;51.176;-115.568;2023-08-06T15:13:22;14.02;68.85
69598;SHT31;70000;51.176;-115.568;2023-08-06T15:15:52;14.09;68.56
69598;SHT31;70000;51.176;-115.568;2023-08-06T15:18:21;14.17;68.53
69598;SHT31;70000;51.176;-115.568;2023-08-06T15:20:50;14.26;68.44
69598;SHT31;70000;51.176;-115.568;2023-08-06T15:23:20;14.36;68.12
69598;SHT31;70000;51.176;-115.568;2023-08-06T15:25:50;14.46;68.15
69598;SHT31;70000;51.176;-115.568;2023-08-06T15:28:23;14.56;67.88
69598;SHT31;70000;51.176;-115.568;2023-08-06T15:30:54;14.66;67.78
69598;SHT31;70000;51.176;-115.568;2023-08-06T15:33:23;14.76;67.60
69598;SHT31;70000;51.176;-115.568;2023-08-06T15:35:53;14.84;67.20
69598;SHT31;70000;51.176;-115.568;2023-08-06T15:38:22;14.93;66.96
69598;SHT31;70000;51.176;-115.568;2023-08-06T15:40:52;15.01;66.66
69598;SHT31;70000;51.176;-115.568;2023-08-06T15:43:21;15.09;66.48
69598;SHT31;70000;51.176;-115.568;2023-08-06T15:45:53;15.17;66.44
69598;SHT31;70000;51.176;-115.568;2023-08-06T15:48:25;15.26;66.18
69598;SHT31;70000;51.176;-115.568;2023-08-06T15:50:55;15.35;65.99
69598;SHT31;70000;51.176;-115.568;2023-08-06T15:53:28;15.45;65.76
69598;SHT31;70000;51.176;-115.568;2023-08-06T15:55:59;15.55;65.61
69598;SHT31;70000;51.176;-115.568;2023-08-06T15:58:29;15.64;65.23
69598;SHT31;70000;51.176;-115.568;2023-08-06T16:01:05;15.73;65.24
69598;SHT31;70000;51.176;-115.568;2023-08-06T16:03:34;15.83;64.91
69598;SHT31;70000;51.176;-115.568;2023-08-06T16:06:09;15.91;64.28
69598;SHT31;70000;51.176;-115.568;2023-08-06T16:08:38;15.99;64.04